Time;durP1;ratioP1;P1;durP2;ratioP2;P2;SDS_P1;SDS_P2;PMS_P1;PMS_P2;Temp;Humidity;BMP_temperature;BMP_pressure;BME280_temperature;BME280_humidity;BME280_pressure;Samples;Min_cycle;Max_cycle;Signal;HPM_P1;HPM_P2
2023/10/25 00:02:13;;;;;;;2.97;1.63;;;11.20;99.90;;;;;;4952729;28;20244;-77
2023/10/25 00:04:41;;;;;;;5.37;2.70;;;11.10;99.90;;;;;;4972800;28;20205;-78
2023/10/25 00:07:10;;;;;;;4.97;1.93;;;11.10;99.90;;;;;;4977319;28;20211;-78
2023/10/25 00:09:37;;;;;;;4.57;1.80;;;11.10;99.90;;;;;;4963123;28;20628;-78
2023/10/25 00:12:05;;;;;;;4.17;2.53;;;11.10;99.90;;;;;;4954137;28;20225;-77
2023/10/25 00:14:33;;;;;;;3.27;2.03;;;11.10;99.90;;;;;;4972358;28;20216;-78
2023/10/25 00:17:00;;;;;;;5.50;2.03;;;11.10;99.90;;;;;;4953473;28;20671;-77
2023/10/25 00:19:28;;;;;;;3.13;1.70;;;11.00;99.90;;;;;;4949280;28;20205;-77
2023/10/25 00:21:55;;;;;;;3.57;1.87;;;11.00;99.90;;;;;;4965221;28;20602;-77
2023/10/25 00:24:24;;;;;;;2.87;2.03;;;11.00;99.90;;;;;;4968630;28;20209;-78
2023/10/25 00:26:51;;;;;;;4.23;2.00;;;11.00;99.90;;;;;;4955368;28;20212;-77
2023/10/25 00:29:19;;;;;;;4.97;2.07;;;10.90;99.90;;;;;;4969478;28;20217;-77
2023/10/25 00:31:46;;;;;;;3.40;2.63;;;10.90;99.90;;;;;;4969093;28;20228;-77
2023/10/25 00:34:14;;;;;;;4.23;2.07;;;11.00;99.90;;;;;;4968847;28;20205;-78
2023/10/25 00:36:41;;;;;;;5.20;2.03;;;10.90;99.90;;;;;;4950784;28;20239;-78
2023/10/25 00:39:08;;;;;;;4.87;2.07;;;10.90;99.90;;;;;;4943727;28;20212;-77
2023/10/25 00:41:37;;;;;;;4.40;2.10;;;10.90;99.90;;;;;;4955080;28;20225;-78
2023/10/25 00:44:05;;;;;;;3.27;1.73;;;10.90;99.90;;;;;;4970348;28;20197;-78
2023/10/25 00:46:33;;;;;;;4.70;2.10;;;10.80;99.90;;;;;;4955793;28;20201;-77
2023/10/25 00:49:01;;;;;;;2.33;2.00;;;10.80;99.90;;;;;;4955179;28;20204;-78
2023/10/25 00:51:30;;;;;;;4.13;2.27;;;10.80;99.90;;;;;;4979618;28;21913;-78
2023/10/25 00:54:02;;;;;;;3.50;1.73;;;10.80;99.90;;;;;;4971586;28;20217;-78
2023/10/25 00:56:33;;;;;;;6.93;2.30;;;10.80;99.90;;;;;;4963841;28;20201;-78
2023/10/25 00:59:02;;;;;;;4.20;2.03;;;10.80;99.90;;;;;;4945907;28;20218;-78
2023/10/25 01:01:29;;;;;;;3.17;2.20;;;10.80;99.90;;;;;;4962340;28;20224;-78
2023/10/25 01:03:56;;;;;;;4.00;2.17;;;10.80;99.90;;;;;;4974435;28;20192;-77
2023/10/25 01:06:24;;;;;;;4.40;2.17;;;10.80;99.90;;;;;;4974638;28;20201;-78
2023/10/25 01:08:53;;;;;;;5.53;1.80;;;10.70;99.90;;;;;;4975041;28;20225;-78
2023/10/25 01:11:20;;;;;;;5.43;2.03;;;10.70;99.90;;;;;;4962347;28;20221;-78
2023/10/25 01:13:48;;;;;;;3.10;2.03;;;10.70;99.90;;;;;;4943353;29;20209;-78
2023/10/25 01:16:16;;;;;;;5.97;2.20;;;10.70;99.90;;;;;;4962942;28;20217;-78
2023/10/25 01:18:44;;;;;;;5.10;2.80;;;10.70;99.90;;;;;;4953523;28;20197;-78
2023/10/25 01:21:11;;;;;;;2.57;2.07;;;10.70;99.90;;;;;;4949073;28;20233;-77
2023/10/25 01:23:40;;;;;;;4.93;1.90;;;10.70;99.90;;;;;;4968326;28;20208;-78
2023/10/25 01:26:07;;;;;;;3.23;2.23;;;10.70;99.90;;;;;;4954649;28;20204;-78
2023/10/25 01:28:35;;;;;;;4.60;1.90;;;10.60;99.90;;;;;;4950407;28;20214;-77
2023/10/25 01:31:03;;;;;;;5.10;2.63;;;10.60;99.90;;;;;;4964648;28;20225;-77
2023/10/25 01:33:30;;;;;;;3.60;2.33;;;10.60;99.90;;;;;;4983615;28;20216;-78
2023/10/25 01:35:58;;;;;;;3.00;2.20;;;10.60;99.90;;;;;;4954164;28;20217;-78
2023/10/25 01:38:25;;;;;;;3.07;1.93;;;10.60;99.90;;;;;;4948814;28;20220;-78
2023/10/25 01:40:54;;;;;;;3.27;2.33;;;10.60;99.90;;;;;;4962849;28;20584;-78
2023/10/25 01:43:21;;;;;;;5.87;2.27;;;10.60;99.90;;;;;;4966837;28;20216;-78
2023/10/25 01:45:50;;;;;;;2.27;1.63;;;10.60;99.90;;;;;;4968015;28;20204;-78
2023/10/25 01:48:17;;;;;;;5.47;2.47;;;10.60;99.90;;;;;;4967340;28;20217;-78
2023/10/25 01:50:45;;;;;;;3.30;2.07;;;10.60;99.90;;;;;;4967774;28;20236;-77
2023/10/25 01:53:13;;;;;;;6.27;2.33;;;10.60;99.90;;;;;;4947885;28;20209;-78
2023/10/25 01:55:41;;;;;;;5.43;1.93;;;10.60;99.90;;;;;;4968961;28;20212;-78
2023/10/25 01:58:10;;;;;;;2.60;2.20;;;10.50;99.90;;;;;;4969021;28;20208;-78
2023/10/25 02:00:39;;;;;;;3.47;2.40;;;10.60;99.90;;;;;;4978042;28;20205;-77
2023/10/25 02:03:06;;;;;;;2.20;2.00;;;10.60;99.90;;;;;;4971214;28;20201;-78
2023/10/25 02:05:34;;;;;;;3.97;2.30;;;10.60;99.90;;;;;;4954919;28;20548;-78
2023/10/25 02:08:01;;;;;;;3.27;2.20;;;10.60;99.90;;;;;;4972182;28;20204;-77
2023/10/25 02:10:29;;;;;;;2.93;2.13;;;10.60;99.90;;;;;;4969219;28;20201;-77
2023/10/25 02:12:56;;;;;;;6.40;2.30;;;10.60;99.90;;;;;;4952663;28;20208;-77
2023/10/25 02:15:26;;;;;;;4.20;2.43;;;10.60;99.90;;;;;;4966336;28;20217;-78
2023/10/25 02:17:54;;;;;;;2.73;1.50;;;10.60;99.90;;;;;;4951849;28;20563;-77
2023/10/25 02:20:21;;;;;;;6.27;2.67;;;10.60;99.90;;;;;;4963121;28;20193;-77
2023/10/25 02:22:49;;;;;;;5.03;2.00;;;10.60;99.90;;;;;;4967189;28;20205;-78
2023/10/25 02:25:16;;;;;;;4.13;2.10;;;10.60;99.90;;;;;;4963352;28;20205;-77
2023/10/25 02:27:43;;;;;;;2.83;2.20;;;10.60;99.90;;;;;;4950930;28;20213;-77
2023/10/25 02:30:12;;;;;;;2.20;2.00;;;10.60;99.90;;;;;;4967803;28;20232;-78
2023/10/25 02:32:40;;;;;;;4.50;1.90;;;10.60;99.90;;;;;;4943660;28;20229;-77
2023/10/25 02:35:09;;;;;;;5.43;2.57;;;10.60;99.90;;;;;;4955026;28;20212;-77
2023/10/25 02:37:36;;;;;;;3.40;2.00;;;10.60;99.90;;;;;;4945535;29;20205;-77
2023/10/25 02:40:04;;;;;;;2.63;2.00;;;10.60;99.90;;;;;;4963475;28;20193;-77
2023/10/25 02:42:44;;;;;;;2.50;2.03;;;10.50;99.90;;;;;;4964345;28;20221;-77
2023/10/25 02:45:11;;;;;;;7.13;2.73;;;10.60;99.90;;;;;;4963351;28;20208;-77
2023/10/25 02:47:40;;;;;;;4.73;2.00;;;10.60;99.90;;;;;;4969787;28;20209;-77
2023/10/25 02:50:08;;;;;;;4.43;2.30;;;10.50;99.90;;;;;;4953921;28;20213;-78
2023/10/25 02:52:36;;;;;;;3.53;2.10;;;10.50;99.90;;;;;;4953494;28;20227;-78
2023/10/25 02:55:04;;;;;;;3.30;2.17;;;10.50;99.90;;;;;;4970932;28;20228;-78
2023/10/25 02:57:31;;;;;;;4.37;2.20;;;10.50;99.90;;;;;;4969876;28;20201;-78
2023/10/25 02:59:59;;;;;;;5.93;2.20;;;10.40;99.90;;;;;;4966845;28;20581;-78
2023/10/25 03:02:27;;;;;;;3.40;2.30;;;10.30;99.90;;;;;;4961605;28;20221;-78
2023/10/25 03:04:55;;;;;;;4.00;2.10;;;10.30;99.90;;;;;;4958219;28;20203;-77
2023/10/25 03:07:23;;;;;;;4.67;2.30;;;10.20;99.90;;;;;;4966516;28;20213;-78
2023/10/25 03:09:50;;;;;;;4.00;2.27;;;10.20;99.90;;;;;;4949204;28;20229;-77
2023/10/25 03:12:18;;;;;;;3.00;2.10;;;10.20;99.90;;;;;;4970192;28;20236;-78
2023/10/25 03:14:45;;;;;;;7.37;2.20;;;10.20;99.90;;;;;;4945905;28;20574;-78
2023/10/25 03:17:13;;;;;;;3.53;2.53;;;10.20;99.90;;;;;;4965647;28;20208;-77
2023/10/25 03:19:40;;;;;;;6.47;2.53;;;10.10;99.90;;;;;;4971090;28;20201;-77
2023/10/25 03:22:09;;;;;;;3.57;2.40;;;10.10;99.90;;;;;;4961731;28;20245;-77
2023/10/25 03:24:36;;;;;;;4.83;2.40;;;10.10;99.90;;;;;;4965680;28;20221;-78
2023/10/25 03:27:07;;;;;;;4.50;1.97;;;10.00;99.90;;;;;;4959735;28;20201;-78
2023/10/25 03:29:36;;;;;;;3.10;2.23;;;10.10;99.90;;;;;;4966266;28;20216;-78
2023/10/25 03:32:04;;;;;;;4.40;2.27;;;10.10;99.90;;;;;;4957042;28;20224;-78
2023/10/25 03:34:32;;;;;;;5.00;2.27;;;10.10;99.90;;;;;;4955964;28;20212;-78
2023/10/25 03:36:59;;;;;;;2.97;2.30;;;10.10;99.90;;;;;;4972692;28;20210;-77
2023/10/25 03:39:28;;;;;;;4.83;2.40;;;10.10;99.90;;;;;;4950795;28;20197;-78
2023/10/25 03:41:55;;;;;;;4.83;2.57;;;10.10;99.90;;;;;;4961074;28;20220;-78
2023/10/25 03:44:23;;;;;;;4.93;2.40;;;10.10;99.90;;;;;;4980128;28;20527;-78
2023/10/25 03:46:50;;;;;;;3.90;2.40;;;10.10;99.90;;;;;;4953808;28;20672;-77
2023/10/25 03:49:18;;;;;;;4.30;2.70;;;10.10;99.90;;;;;;4952295;28;20217;-78
2023/10/25 03:51:45;;;;;;;5.00;2.03;;;10.10;99.90;;;;;;4956489;28;20225;-78
2023/10/25 03:54:12;;;;;;;5.90;2.53;;;10.10;99.90;;;;;;4952065;28;20309;-77
2023/10/25 03:56:42;;;;;;;6.83;2.47;;;10.10;99.90;;;;;;4968159;28;20575;-77
2023/10/25 03:59:11;;;;;;;5.37;2.20;;;10.10;99.90;;;;;;4956826;28;20201;-77
2023/10/25 04:01:39;;;;;;;5.57;2.50;;;10.10;99.90;;;;;;4955341;28;20225;-77
2023/10/25 04:04:07;;;;;;;3.40;2.20;;;10.00;99.90;;;;;;4968321;28;20202;-77
2023/10/25 04:06:34;;;;;;;4.40;2.23;;;10.00;99.90;;;;;;4967619;28;20205;-77
2023/10/25 04:09:02;;;;;;;4.87;2.47;;;10.00;99.90;;;;;;4966698;28;20220;-78
2023/10/25 04:11:29;;;;;;;6.67;2.87;;;10.00;99.90;;;;;;4972263;28;20516;-78
2023/10/25 04:13:58;;;;;;;2.77;2.30;;;9.90;99.90;;;;;;4956770;28;20205;-78
2023/10/25 04:16:27;;;;;;;3.37;2.60;;;9.90;99.90;;;;;;4954532;28;20201;-78
2023/10/25 04:18:54;;;;;;;5.97;2.87;;;10.00;99.90;;;;;;4971673;28;20193;-78
2023/10/25 04:21:22;;;;;;;4.53;2.43;;;9.90;99.90;;;;;;4955418;28;20228;-77
2023/10/25 04:23:49;;;;;;;3.77;2.80;;;10.00;99.90;;;;;;4969894;28;20220;-77
2023/10/25 04:26:16;;;;;;;4.33;2.80;;;10.00;99.90;;;;;;4954809;28;20217;-77
2023/10/25 04:28:45;;;;;;;3.70;3.00;;;10.00;99.90;;;;;;4946853;28;20204;-77
2023/10/25 04:31:14;;;;;;;6.83;3.00;;;9.90;99.90;;;;;;4951493;28;20224;-77
2023/10/25 04:33:42;;;;;;;4.17;2.63;;;9.90;99.90;;;;;;4970774;28;20205;-77
2023/10/25 04:36:09;;;;;;;5.47;2.80;;;9.90;99.90;;;;;;4970087;28;20197;-77
2023/10/25 04:38:37;;;;;;;3.77;2.70;;;9.90;99.90;;;;;;4950560;29;20209;-77
2023/10/25 04:41:04;;;;;;;5.20;2.70;;;9.90;99.90;;;;;;4946926;28;20220;-77
2023/10/25 04:43:32;;;;;;;3.30;2.80;;;9.80;99.90;;;;;;4967161;28;20205;-77
2023/10/25 04:46:00;;;;;;;4.17;2.30;;;9.90;99.90;;;;;;4969620;28;20212;-77
2023/10/25 04:48:28;;;;;;;4.10;2.37;;;9.90;99.90;;;;;;4969990;28;20214;-78
2023/10/25 04:50:56;;;;;;;4.90;2.60;;;9.90;99.90;;;;;;4964168;28;20695;-76
2023/10/25 04:53:23;;;;;;;4.37;2.17;;;9.90;99.90;;;;;;4966729;28;20197;-77
2023/10/25 04:55:51;;;;;;;3.47;2.63;;;9.90;99.90;;;;;;4965292;28;20217;-75
2023/10/25 04:58:19;;;;;;;5.73;2.97;;;9.90;99.90;;;;;;4968039;28;20220;-77
2023/10/25 05:00:46;;;;;;;3.40;2.33;;;9.90;99.90;;;;;;4968794;28;20240;-77
2023/10/25 05:03:13;;;;;;;3.47;2.50;;;9.90;99.90;;;;;;4951283;28;20209;-77
2023/10/25 05:05:42;;;;;;;4.53;2.90;;;10.00;99.90;;;;;;4948865;28;20204;-77
2023/10/25 05:08:11;;;;;;;5.40;3.60;;;10.00;99.90;;;;;;4960835;28;20279;-77
2023/10/25 05:10:40;;;;;;;4.67;3.27;;;10.00;99.90;;;;;;4947036;28;20224;-77
2023/10/25 05:13:09;;;;;;;5.27;2.93;;;10.00;99.90;;;;;;4948519;28;20193;-77
2023/10/25 05:15:37;;;;;;;4.37;2.90;;;10.10;99.90;;;;;;4969460;28;20216;-77
2023/10/25 05:18:05;;;;;;;3.97;2.50;;;10.10;99.90;;;;;;4950846;28;20198;-77
2023/10/25 05:20:33;;;;;;;6.13;3.03;;;10.10;99.90;;;;;;4967479;28;20576;-77
2023/10/25 05:23:04;;;;;;;5.60;3.40;;;10.10;99.90;;;;;;4953382;28;20220;-77
2023/10/25 05:25:32;;;;;;;5.13;2.97;;;10.10;99.90;;;;;;4950068;28;20220;-77
2023/10/25 05:28:01;;;;;;;4.27;3.23;;;10.10;99.90;;;;;;4970571;28;20201;-77
2023/10/25 05:30:29;;;;;;;3.93;2.83;;;10.10;99.90;;;;;;4953825;28;20221;-77
2023/10/25 05:33:01;;;;;;;5.97;3.40;;;10.10;99.90;;;;;;4968120;28;20216;-77
2023/10/25 05:35:30;;;;;;;6.60;3.10;;;10.10;99.90;;;;;;4966387;28;20212;-77
2023/10/25 05:37:58;;;;;;;4.53;3.47;;;10.10;99.90;;;;;;4969370;28;20209;-77
2023/10/25 05:40:27;;;;;;;3.60;3.17;;;10.10;99.90;;;;;;4969224;28;20683;-77
2023/10/25 05:42:57;;;;;;;4.23;3.10;;;10.20;99.90;;;;;;4961343;28;20201;-77
2023/10/25 05:45:25;;;;;;;5.87;3.50;;;10.20;99.90;;;;;;4969546;28;20217;-77
2023/10/25 05:47:54;;;;;;;7.07;3.37;;;10.20;99.90;;;;;;4968929;28;20204;-79
2023/10/25 05:50:24;;;;;;;5.27;3.00;;;10.20;99.90;;;;;;4952598;28;20220;-80
2023/10/25 05:52:52;;;;;;;4.13;2.73;;;10.30;99.90;;;;;;4949715;28;20568;-79
2023/10/25 05:55:20;;;;;;;3.50;3.17;;;10.30;99.90;;;;;;4953580;28;20212;-79
2023/10/25 05:57:49;;;;;;;6.70;2.97;;;10.30;99.90;;;;;;4953320;28;20213;-80
2023/10/25 06:00:18;;;;;;;3.07;2.73;;;10.30;99.90;;;;;;4972086;28;20274;-79
2023/10/25 06:02:45;;;;;;;3.80;2.83;;;10.30;99.90;;;;;;4973773;28;20228;-79
2023/10/25 06:05:14;;;;;;;4.73;2.90;;;10.30;99.90;;;;;;4971719;28;20264;-79
2023/10/25 06:07:42;;;;;;;4.73;3.27;;;10.30;99.90;;;;;;4957434;28;20204;-80
2023/10/25 06:10:10;;;;;;;3.83;2.80;;;10.30;99.90;;;;;;4963146;28;20210;-79
2023/10/25 06:12:40;;;;;;;4.93;3.10;;;10.30;99.90;;;;;;4952714;28;20228;-81
2023/10/25 06:15:10;;;;;;;4.07;3.40;;;10.40;99.90;;;;;;4966313;28;20200;-80
2023/10/25 06:17:41;;;;;;;4.10;3.27;;;10.30;99.90;;;;;;4970677;28;20220;-80
2023/10/25 06:20:10;;;;;;;6.10;4.23;;;10.30;99.90;;;;;;4954158;28;20216;-80
2023/10/25 06:22:37;;;;;;;5.13;3.40;;;10.30;99.90;;;;;;4968884;28;20239;-81
2023/10/25 06:25:09;;;;;;;9.03;3.60;;;10.20;99.90;;;;;;4968802;28;20200;-80
2023/10/25 06:27:36;;;;;;;5.27;3.37;;;10.30;99.90;;;;;;4954437;28;20532;-80
2023/10/25 06:30:05;;;;;;;4.37;3.27;;;10.30;99.90;;;;;;4960054;28;20201;-80
2023/10/25 06:32:34;;;;;;;5.23;3.80;;;10.30;99.90;;;;;;4960452;28;20604;-79
2023/10/25 06:35:01;;;;;;;5.33;3.47;;;10.30;99.90;;;;;;4958104;28;20201;-79
2023/10/25 06:37:30;;;;;;;6.27;3.67;;;10.20;99.90;;;;;;4975270;28;20196;-80
2023/10/25 06:39:58;;;;;;;4.30;3.13;;;10.20;99.90;;;;;;4960052;28;20197;-79
2023/10/25 06:42:28;;;;;;;4.20;3.53;;;10.20;99.90;;;;;;4975325;28;20228;-79
2023/10/25 06:44:56;;;;;;;3.80;3.40;;;10.20;99.90;;;;;;4973870;28;20563;-78
2023/10/25 06:47:26;;;;;;;5.27;3.70;;;10.20;99.90;;;;;;4979241;28;20201;-78
2023/10/25 06:49:56;;;;;;;6.67;3.97;;;10.20;99.90;;;;;;4964599;28;20205;-79
2023/10/25 06:52:24;;;;;;;7.80;3.87;;;10.20;99.90;;;;;;4979769;28;20252;-78
2023/10/25 06:54:53;;;;;;;5.80;3.67;;;10.20;99.90;;;;;;4982839;28;20296;-79
2023/10/25 06:57:21;;;;;;;5.47;3.33;;;10.20;99.90;;;;;;4980392;28;20189;-78
2023/10/25 06:59:49;;;;;;;7.57;4.10;;;10.20;99.90;;;;;;4957185;28;20205;-78
2023/10/25 07:02:33;;;;;;;5.30;3.67;;;10.30;99.90;;;;;;4962165;28;20213;-78
2023/10/25 07:05:10;;;;;;;6.30;3.40;;;10.30;99.90;;;;;;4963346;28;20201;-79
2023/10/25 07:07:40;;;;;;;4.67;3.20;;;10.30;99.90;;;;;;4955923;28;20200;-79
2023/10/25 07:10:09;;;;;;;4.57;3.83;;;10.30;99.90;;;;;;4959303;28;20193;-78
2023/10/25 07:12:36;;;;;;;6.33;3.60;;;10.40;99.90;;;;;;4962178;28;20220;-78
2023/10/25 07:15:05;;;;;;;4.77;3.40;;;10.40;99.90;;;;;;4978537;28;20569;-78
2023/10/25 07:17:32;;;;;;;4.90;3.70;;;10.40;99.90;;;;;;4963614;28;20795;-78
2023/10/25 07:19:59;;;;;;;4.57;3.43;;;10.50;99.90;;;;;;4981215;28;20204;-78
2023/10/25 07:22:29;;;;;;;5.23;3.97;;;10.60;99.90;;;;;;4962868;28;20577;-78
2023/10/25 07:24:56;;;;;;;5.80;3.47;;;10.70;99.90;;;;;;4977495;28;20198;-78
2023/10/25 07:27:24;;;;;;;4.67;3.30;;;10.80;99.90;;;;;;4961922;28;20201;-78
2023/10/25 07:29:52;;;;;;;5.30;3.63;;;10.80;99.90;;;;;;4977760;28;20233;-78
2023/10/25 07:32:19;;;;;;;3.70;3.00;;;11.00;99.90;;;;;;4963638;28;20248;-78
2023/10/25 07:34:46;;;;;;;5.60;2.80;;;11.00;99.90;;;;;;4977696;28;20197;-78
2023/10/25 07:37:15;;;;;;;3.63;2.90;;;11.10;99.90;;;;;;4978296;28;20197;-78
2023/10/25 07:39:43;;;;;;;6.27;3.20;;;11.10;99.90;;;;;;4979826;28;20201;-78
2023/10/25 07:42:11;;;;;;;3.70;2.43;;;11.20;99.90;;;;;;4978879;28;20213;-78
2023/10/25 07:44:38;;;;;;;4.73;2.20;;;11.20;99.90;;;;;;4978058;28;20205;-78
2023/10/25 07:47:06;;;;;;;4.57;2.43;;;11.20;99.90;;;;;;4977787;28;20212;-78
2023/10/25 07:49:35;;;;;;;4.07;2.43;;;11.30;99.90;;;;;;4979454;28;20212;-78
2023/10/25 07:52:03;;;;;;;4.20;2.30;;;11.40;99.90;;;;;;4979219;28;20266;-78
2023/10/25 07:54:30;;;;;;;5.13;2.33;;;11.40;99.90;;;;;;4963296;28;20208;-78
2023/10/25 07:56:59;;;;;;;3.80;2.90;;;11.40;99.90;;;;;;4985822;28;20196;-78
2023/10/25 07:59:27;;;;;;;5.37;2.37;;;11.50;99.90;;;;;;4979529;28;20228;-78
2023/10/25 08:01:54;;;;;;;2.90;2.60;;;11.50;99.90;;;;;;4974554;28;20209;-78
2023/10/25 08:04:22;;;;;;;6.13;2.50;;;11.40;99.90;;;;;;4975092;28;20212;-78
2023/10/25 08:06:50;;;;;;;6.53;2.50;;;11.50;99.90;;;;;;4957088;28;20209;-78
2023/10/25 08:09:18;;;;;;;6.63;2.37;;;11.60;99.90;;;;;;4969213;28;20212;-79
2023/10/25 08:11:45;;;;;;;4.67;2.40;;;11.50;99.90;;;;;;4975208;28;20220;-78
2023/10/25 08:14:14;;;;;;;3.30;2.53;;;11.50;99.90;;;;;;4960566;28;20710;-79
2023/10/25 08:16:42;;;;;;;3.20;2.00;;;11.60;99.90;;;;;;4975519;28;20197;-79
2023/10/25 08:19:10;;;;;;;5.63;2.00;;;11.60;99.90;;;;;;4956415;28;20217;-79
2023/10/25 08:21:38;;;;;;;4.17;2.30;;;11.60;99.90;;;;;;4975380;28;20239;-79
2023/10/25 08:24:06;;;;;;;3.70;2.30;;;11.70;99.90;;;;;;4971913;28;20193;-79
2023/10/25 08:26:39;;;;;;;3.53;2.00;;;11.80;99.90;;;;;;4976343;28;20743;-79
2023/10/25 08:29:10;;;;;;;7.13;1.90;;;11.90;99.90;;;;;;4973081;28;20205;-79
2023/10/25 08:31:39;;;;;;;4.80;1.70;;;11.80;99.90;;;;;;4955455;28;20233;-79
2023/10/25 08:34:08;;;;;;;3.27;1.60;;;11.80;99.90;;;;;;4972757;28;20201;-79
2023/10/25 08:36:36;;;;;;;2.53;1.40;;;11.80;99.90;;;;;;4958443;28;20237;-79
2023/10/25 08:39:04;;;;;;;2.30;1.30;;;11.80;99.90;;;;;;4972436;28;20196;-79
2023/10/25 08:41:33;;;;;;;2.77;1.30;;;11.80;99.90;;;;;;4973781;28;20225;-79
2023/10/25 08:44:00;;;;;;;1.67;1.37;;;11.80;99.90;;;;;;4974300;28;20209;-79
2023/10/25 08:46:29;;;;;;;2.90;1.77;;;11.80;99.90;;;;;;4976936;28;20201;-78
2023/10/25 08:48:58;;;;;;;3.60;1.40;;;11.80;99.90;;;;;;4977001;28;20193;-79
2023/10/25 08:51:25;;;;;;;3.10;1.20;;;12.10;99.90;;;;;;4977265;28;20220;-79
2023/10/25 08:53:55;;;;;;;3.30;1.20;;;12.20;99.90;;;;;;4975933;28;20209;-79
2023/10/25 08:56:23;;;;;;;2.00;1.23;;;12.20;99.90;;;;;;4967777;28;20201;-79
2023/10/25 08:58:50;;;;;;;1.67;1.10;;;12.20;99.90;;;;;;4971465;28;20209;-78
2023/10/25 09:01:18;;;;;;;4.20;1.20;;;12.20;99.90;;;;;;4959163;28;20225;-78
2023/10/25 09:03:46;;;;;;;4.17;1.30;;;12.20;99.90;;;;;;4953682;28;20198;-78
2023/10/25 09:06:24;;;;;;;3.50;1.30;;;12.20;99.90;;;;;;4967043;28;20208;-79
2023/10/25 09:08:59;;;;;;;3.97;1.03;;;12.30;99.90;;;;;;4961174;28;20219;-79
2023/10/25 09:11:37;;;;;;;3.53;1.40;;;12.30;99.90;;;;;;4956175;28;20227;-79
2023/10/25 09:14:06;;;;;;;2.35;1.10;;;12.30;99.90;;;;;;4955644;28;20196;-79
2023/10/25 09:16:34;;;;;;;2.00;1.00;;;12.30;99.90;;;;;;4957302;28;20216;-78
2023/10/25 09:19:04;;;;;;;3.43;2.00;;;12.40;99.90;;;;;;4958077;28;20213;-78
2023/10/25 09:21:33;;;;;;;5.00;1.30;;;12.50;99.90;;;;;;4974207;28;20236;-79
2023/10/25 09:24:02;;;;;;;4.27;1.60;;;12.50;99.90;;;;;;4961417;28;20216;-79
2023/10/25 09:26:39;;;;;;;3.28;1.30;;;12.60;99.90;;;;;;4959113;28;20208;-79
2023/10/25 09:29:09;;;;;;;2.65;1.30;;;12.50;99.90;;;;;;4957111;28;20205;-79
2023/10/25 09:31:37;;;;;;;2.03;1.10;;;12.50;99.90;;;;;;4970125;28;20229;-80
2023/10/25 09:34:09;;;;;;;4.27;1.70;;;12.50;99.90;;;;;;4975437;28;20233;-79
2023/10/25 09:36:38;;;;;;;2.38;1.02;;;12.50;99.90;;;;;;4973780;28;20209;-79
2023/10/25 09:39:05;;;;;;;4.83;1.47;;;12.60;99.90;;;;;;4959685;28;20215;-79
2023/10/25 09:41:38;;;;;;;5.97;1.65;;;12.60;99.90;;;;;;4961628;28;20236;-79
2023/10/25 09:44:17;;;;;;;1.52;1.13;;;12.50;99.90;;;;;;4961952;28;20197;-79
2023/10/25 09:46:47;;;;;;;4.55;1.55;;;12.60;99.90;;;;;;4963270;28;20212;-80
2023/10/25 09:49:16;;;;;;;2.80;1.02;;;12.70;99.90;;;;;;4978516;28;20204;-80
2023/10/25 09:52:05;;;;;;;2.67;1.48;;;12.70;99.90;;;;;;4980863;28;20231;-80
2023/10/25 09:54:34;;;;;;;3.25;0.90;;;12.70;99.90;;;;;;4980768;28;20207;-80
2023/10/25 09:57:02;;;;;;;1.80;1.15;;;12.70;99.90;;;;;;4975306;28;20636;-80
2023/10/25 09:59:32;;;;;;;4.07;1.20;;;12.70;99.90;;;;;;4965862;28;20216;-80
2023/10/25 10:02:02;;;;;;;3.07;1.17;;;12.60;99.90;;;;;;4984387;28;20222;-80
2023/10/25 10:04:42;;;;;;;3.38;1.30;;;12.70;99.90;;;;;;4965151;28;20204;-80
2023/10/25 10:07:19;;;;;;;1.35;1.25;;;12.80;99.90;;;;;;4976785;28;20211;-80
2023/10/25 10:09:55;;;;;;;4.22;1.70;;;12.80;99.90;;;;;;4960371;28;20543;-80
2023/10/25 10:12:23;;;;;;;2.05;1.08;;;12.70;99.90;;;;;;4986848;28;20589;-80
2023/10/25 10:14:52;;;;;;;6.10;1.50;;;12.70;99.90;;;;;;4956791;28;20208;-80
2023/10/25 10:17:19;;;;;;;2.77;1.30;;;12.70;99.90;;;;;;4956801;28;20201;-80
2023/10/25 10:19:49;;;;;;;2.40;1.10;;;12.70;99.90;;;;;;4975234;28;20208;-80
2023/10/25 10:22:19;;;;;;;3.88;1.40;;;12.70;99.90;;;;;;4962494;28;20239;-80
2023/10/25 10:24:48;;;;;;;1.33;1.20;;;12.70;99.90;;;;;;4976794;28;20212;-80
2023/10/25 10:27:18;;;;;;;4.40;1.40;;;12.70;99.90;;;;;;4977774;28;20208;-80
2023/10/25 10:29:46;;;;;;;3.08;1.25;;;12.70;99.90;;;;;;4981714;28;20210;-79
2023/10/25 10:32:14;;;;;;;1.98;1.23;;;12.70;99.90;;;;;;4962966;28;20220;-80
2023/10/25 10:34:44;;;;;;;3.92;1.27;;;12.70;99.90;;;;;;4977197;28;20206;-79
2023/10/25 10:37:13;;;;;;;4.13;1.27;;;12.60;99.90;;;;;;4979875;28;20197;-80
2023/10/25 10:40:13;;;;;;;1.58;1.20;;;12.60;99.90;;;;;;4976584;28;20664;-79
2023/10/25 10:42:42;;;;;;;1.85;1.30;;;12.60;99.90;;;;;;4977574;28;20223;-80
2023/10/25 10:45:14;;;;;;;4.70;1.38;;;12.50;99.90;;;;;;4977783;28;20204;-80
2023/10/25 10:47:43;;;;;;;3.45;1.40;;;12.50;99.90;;;;;;4951289;28;20195;-82
2023/10/25 10:50:13;;;;;;;2.70;1.52;;;12.40;99.90;;;;;;4962856;28;20216;-81
2023/10/25 10:52:41;;;;;;;3.08;1.73;;;12.40;99.90;;;;;;4984593;28;20228;-81
2023/10/25 10:55:14;;;;;;;1.95;1.48;;;12.40;99.90;;;;;;4970785;28;20563;-81
2023/10/25 10:57:42;;;;;;;2.67;1.52;;;12.30;99.90;;;;;;4988438;28;20201;-81
2023/10/25 11:00:11;;;;;;;1.73;1.17;;;12.40;99.90;;;;;;4970559;28;20205;-82
2023/10/25 11:02:39;;;;;;;2.80;1.80;;;12.40;99.90;;;;;;4968724;28;20225;-81
2023/10/25 11:05:08;;;;;;;3.15;1.60;;;12.30;99.90;;;;;;4976520;28;20714;-81
2023/10/25 11:07:35;;;;;;;3.90;1.30;;;12.30;99.90;;;;;;4968014;28;20212;-81
2023/10/25 11:10:03;;;;;;;2.22;1.23;;;12.30;99.90;;;;;;4967040;28;20224;-80
2023/10/25 11:12:32;;;;;;;4.25;1.40;;;12.30;99.90;;;;;;4985429;28;20703;-80
2023/10/25 11:15:25;;;;;;;2.28;1.42;;;12.40;99.90;;;;;;4957983;29;20198;-80
2023/10/25 11:17:53;;;;;;;1.95;1.60;;;12.40;99.90;;;;;;4977007;28;20193;-80
2023/10/25 11:20:21;;;;;;;2.78;1.67;;;12.40;99.90;;;;;;4976006;28;20209;-80
2023/10/25 11:22:57;;;;;;;2.60;1.40;;;12.30;99.90;;;;;;4976236;28;20599;-80
2023/10/25 11:25:29;;;;;;;2.67;1.90;;;12.30;99.90;;;;;;4974969;28;20197;-80
2023/10/25 11:27:58;;;;;;;2.80;1.83;;;12.40;99.90;;;;;;4958405;28;20201;-81
2023/10/25 11:30:26;;;;;;;3.80;1.25;;;13.00;99.90;;;;;;4975602;28;20567;-81
2023/10/25 11:32:54;;;;;;;3.17;1.45;;;13.40;99.90;;;;;;4960962;29;20205;-82
2023/10/25 11:35:27;;;;;;;2.65;1.27;;;13.30;99.90;;;;;;4962224;28;20212;-81
2023/10/25 11:37:58;;;;;;;2.47;1.58;;;13.60;99.90;;;;;;4955518;28;20205;-81
2023/10/25 11:40:43;;;;;;;3.03;1.20;;;13.30;99.90;;;;;;4952549;28;20201;-80
2023/10/25 11:43:12;;;;;;;2.88;1.45;;;12.90;99.90;;;;;;4973676;28;20559;-80
2023/10/25 11:45:42;;;;;;;2.50;1.63;;;12.70;99.90;;;;;;4974436;28;20225;-80
2023/10/25 11:48:16;;;;;;;3.38;1.52;;;12.50;99.90;;;;;;4976304;28;20205;-80
2023/10/25 11:50:46;;;;;;;2.30;1.83;;;12.50;99.90;;;;;;4968761;28;20201;-80
2023/10/25 11:53:15;;;;;;;3.13;1.88;;;12.40;99.90;;;;;;4959000;28;20557;-81
2023/10/25 11:55:43;;;;;;;3.92;2.10;;;12.30;99.90;;;;;;4961519;28;20209;-81
2023/10/25 11:58:15;;;;;;;2.97;1.73;;;12.30;99.90;;;;;;4975572;28;20216;-81
2023/10/25 12:00:43;;;;;;;4.38;2.05;;;12.30;99.90;;;;;;4971408;28;20663;-81
2023/10/25 12:03:10;;;;;;;4.97;2.17;;;12.20;99.90;;;;;;4974114;28;20209;-81
2023/10/25 12:05:41;;;;;;;3.78;1.95;;;12.20;99.90;;;;;;4953973;28;20197;-80
2023/10/25 12:08:08;;;;;;;3.28;1.90;;;12.20;99.90;;;;;;4968788;28;20197;-80
2023/10/25 12:10:36;;;;;;;3.50;2.05;;;12.20;99.90;;;;;;4973010;28;20561;-81
2023/10/25 12:13:03;;;;;;;6.07;2.05;;;12.10;99.90;;;;;;4974065;28;20281;-80
2023/10/25 12:15:32;;;;;;;2.20;1.60;;;12.20;99.90;;;;;;4971880;28;20209;-80
2023/10/25 12:17:59;;;;;;;5.75;2.30;;;12.20;99.90;;;;;;4965229;28;20197;-80
2023/10/25 12:20:27;;;;;;;4.38;2.17;;;12.10;99.90;;;;;;4953927;28;20198;-80
2023/10/25 12:22:54;;;;;;;3.80;2.20;;;12.10;99.90;;;;;;4972759;28;20212;-80
2023/10/25 12:25:22;;;;;;;5.13;2.05;;;12.10;99.90;;;;;;4980896;28;20216;-80
2023/10/25 12:27:49;;;;;;;3.65;2.30;;;12.10;99.90;;;;;;4954360;28;20208;-81
2023/10/25 12:30:18;;;;;;;4.38;2.40;;;12.10;99.90;;;;;;4970339;28;20578;-80
2023/10/25 12:32:47;;;;;;;5.00;2.67;;;12.10;99.90;;;;;;4952933;28;20229;-80
2023/10/25 12:35:14;;;;;;;5.87;2.00;;;12.10;99.90;;;;;;4953791;28;20232;-80
2023/10/25 12:37:42;;;;;;;3.20;2.37;;;12.10;99.90;;;;;;4974135;28;20655;-80
2023/10/25 12:40:10;;;;;;;3.85;2.53;;;12.10;99.90;;;;;;4956402;28;20201;-80
2023/10/25 12:42:38;;;;;;;3.83;2.40;;;12.10;99.90;;;;;;4984611;28;20817;-80
2023/10/25 12:45:07;;;;;;;3.47;2.30;;;12.10;99.90;;;;;;4967435;28;20216;-80
2023/10/25 12:47:34;;;;;;;4.70;2.50;;;12.10;99.90;;;;;;4981451;28;20209;-80
2023/10/25 12:50:04;;;;;;;4.38;2.42;;;12.10;99.90;;;;;;4972351;28;20204;-80
2023/10/25 12:52:32;;;;;;;3.00;2.23;;;12.10;99.90;;;;;;4974345;28;20220;-80
2023/10/25 12:55:00;;;;;;;4.93;2.90;;;12.10;99.90;;;;;;4965373;28;20229;-78
2023/10/25 12:57:28;;;;;;;4.85;2.88;;;12.00;99.90;;;;;;4970642;28;20204;-81